Time;durP1;ratioP1;P1;durP2;ratioP2;P2;SDS_P1;SDS_P2;PMS_P1;PMS_P2;Temp;Humidity;BMP_temperature;BMP_pressure;BME280_temperature;BME280_humidity;BME280_pressure;Samples;Min_cycle;Max_cycle;Signal;HPM_P1;HPM_P2
2022/03/07 00:01:57;;;;;;;7.22;4.88;;;;;;;7.55;72.89;101438.59;5004790;28;20041;-85
2022/03/07 00:04:22;;;;;;;8.18;4.97;;;;;;;7.43;73.38;101441.19;4990525;28;20101;-86
2022/03/07 00:06:48;;;;;;;7.63;4.70;;;;;;;6.93;73.05;101331.69;5023344;28;20034;-86
2022/03/07 00:09:14;;;;;;;6.28;4.65;;;;;;;7.45;73.24;101437.00;5023410;28;20027;-86
2022/03/07 00:11:42;;;;;;;9.02;5.50;;;;;;;6.99;72.71;101329.56;4994042;28;20061;-88
2022/03/07 00:14:08;;;;;;;7.32;4.88;;;;;;;7.38;72.99;101405.22;5009322;28;20034;-88
2022/03/07 00:16:38;;;;;;;6.32;4.30;;;;;;;7.30;72.93;101387.38;5010253;28;20033;-89
2022/03/07 00:19:03;;;;;;;6.57;4.70;;;;;;;6.93;73.00;101334.28;5014588;28;20511;-87
2022/03/07 00:21:31;;;;;;;7.95;5.07;;;;;;;7.51;72.89;101419.28;5014306;28;20033;-89
2022/03/07 00:23:57;;;;;;;7.05;4.63;;;;;;;7.50;72.67;101409.69;4996926;28;20033;-88
2022/03/07 00:26:26;;;;;;;7.80;5.28;;;;;;;7.39;72.67;101391.44;5030450;28;20049;-88
2022/03/07 00:28:53;;;;;;;7.07;4.45;;;;;;;7.52;72.95;101413.28;4997754;28;20578;-87
2022/03/07 00:31:22;;;;;;;6.32;4.75;;;;;;;7.43;73.18;101404.81;5013834;28;20522;-88
2022/03/07 00:33:48;;;;;;;6.22;4.65;;;;;;;7.44;73.02;101429.09;5014069;28;20053;-88
2022/03/07 00:36:13;;;;;;;6.40;4.55;;;;;;;7.06;72.93;101334.44;5014040;28;20105;-88
2022/03/07 00:38:39;;;;;;;6.28;4.10;;;;;;;7.37;73.12;101411.22;5014074;28;20030;-88
2022/03/07 00:41:04;;;;;;;6.80;4.40;;;;;;;7.36;73.22;101397.31;4997308;28;20087;-88
2022/03/07 00:43:30;;;;;;;6.88;4.28;;;;;;;7.09;73.03;101332.09;4997637;28;20029;-88
2022/03/07 00:45:56;;;;;;;6.20;4.53;;;;;;;7.53;72.55;101407.31;5014119;28;20088;-88
2022/03/07 00:48:22;;;;;;;7.80;4.60;;;;;;;7.51;72.74;101410.56;5014074;28;20411;-88
2022/03/07 00:50:50;;;;;;;6.95;4.43;;;;;;;7.01;73.13;101340.06;5013448;28;20414;-88
2022/03/07 00:53:23;;;;;;;6.18;4.43;;;;;;;7.51;72.82;101403.72;5013530;28;20053;-88
2022/03/07 00:55:51;;;;;;;5.25;3.85;;;;;;;7.39;73.27;101407.97;4997322;28;20672;-88
2022/03/07 00:58:18;;;;;;;6.55;4.07;;;;;;;7.44;73.02;101405.72;5013962;28;20026;-87
2022/03/07 01:00:45;;;;;;;6.65;4.30;;;;;;;7.41;73.09;101385.59;5013088;28;20121;-87
2022/03/07 01:03:13;;;;;;;6.78;4.40;;;;;;;7.40;72.87;101391.56;5030213;28;20687;-87
2022/03/07 01:05:40;;;;;;;5.93;4.20;;;;;;;7.40;73.01;101394.16;5024233;28;20034;-87
2022/03/07 01:08:07;;;;;;;5.75;4.20;;;;;;;7.47;73.12;101398.13;5029340;28;20034;-87
2022/03/07 01:10:33;;;;;;;5.25;4.00;;;;;;;6.85;73.24;101299.91;5009945;28;20038;-87
2022/03/07 01:12:59;;;;;;;5.82;4.45;;;;;;;7.00;73.20;101330.44;4995169;28;20026;-87
2022/03/07 01:15:25;;;;;;;4.95;3.78;;;;;;;7.00;72.65;101300.19;4994878;28;20385;-87
2022/03/07 01:17:53;;;;;;;6.40;4.20;;;;;;;6.88;72.81;101292.38;5010114;28;20085;-87
2022/03/07 01:20:19;;;;;;;4.82;3.78;;;;;;;7.46;72.90;101385.94;5016772;28;20038;-87
2022/03/07 01:22:45;;;;;;;5.75;3.63;;;;;;;7.57;72.65;101387.66;5013270;28;20030;-88
2022/03/07 01:25:11;;;;;;;7.22;4.10;;;;;;;7.34;72.79;101372.91;5029588;28;20126;-88
2022/03/07 01:27:40;;;;;;;5.25;3.90;;;;;;;7.35;72.94;101377.34;5013131;28;20022;-88
2022/03/07 01:30:06;;;;;;;5.75;4.13;;;;;;;7.04;73.18;101328.22;5008622;28;20038;-87
2022/03/07 01:32:32;;;;;;;;;;;;;;;7.52;72.79;101384.72;5010344;28;20034;-87
2022/03/07 01:34:57;;;;;;;5.07;3.55;;;;;;;7.10;72.81;101326.09;5009866;28;19920;-88
2022/03/07 01:37:23;;;;;;;4.78;3.55;;;;;;;6.69;73.09;101277.06;4993538;28;20025;-87
2022/03/07 01:39:49;;;;;;;5.00;3.67;;;;;;;7.17;72.41;101340.44;5022397;28;20120;-87
2022/03/07 01:42:15;;;;;;;4.70;3.65;;;;;;;7.07;72.60;101309.34;5019165;28;20109;-88
2022/03/07 01:44:42;;;;;;;4.57;3.67;;;;;;;7.01;72.63;101294.22;5012885;28;20022;-88
2022/03/07 01:47:07;;;;;;;4.65;3.58;;;;;;;7.21;72.97;101346.78;5012629;28;20026;-88
2022/03/07 01:49:33;;;;;;;5.70;4.18;;;;;;;7.01;72.72;101299.41;5012296;28;20408;-88
2022/03/07 01:51:59;;;;;;;5.03;3.72;;;;;;;7.38;73.01;101377.53;5029050;28;20482;-87
2022/03/07 01:54:25;;;;;;;4.85;3.70;;;;;;;6.96;72.89;101310.22;5029221;28;20033;-88
2022/03/07 01:56:52;;;;;;;5.72;3.80;;;;;;;7.31;73.34;101383.97;5013805;28;20026;-87
2022/03/07 01:59:21;;;;;;;5.47;3.78;;;;;;;6.67;73.04;101260.47;5013386;28;20033;-88
2022/03/07 02:01:47;;;;;;;6.30;3.80;;;;;;;7.04;72.75;101319.53;5012628;28;20044;-87
2022/03/07 02:04:13;;;;;;;5.88;4.10;;;;;;;7.13;72.72;101335.78;5012568;28;20593;-88
2022/03/07 02:06:39;;;;;;;4.43;3.53;;;;;;;7.06;72.95;101339.63;5012637;28;20045;-88
2022/03/07 02:09:07;;;;;;;4.80;3.50;;;;;;;6.97;72.09;101314.66;5012264;28;20041;-88
2022/03/07 02:11:33;;;;;;;4.32;3.25;;;;;;;7.24;73.01;101368.72;5018608;28;20121;-88
2022/03/07 02:14:24;;;;;;;5.00;3.75;;;;;;;6.96;73.05;101325.81;5009406;28;20111;-88
2022/03/07 02:16:50;;;;;;;4.18;3.42;;;;;;;7.38;72.64;101384.44;5024980;28;20492;-88
2022/03/07 02:19:16;;;;;;;;;;;;;;;7.36;72.89;101394.72;5019442;28;20065;-89
2022/03/07 02:21:47;;;;;;;4.35;3.10;;;;;;;7.36;73.03;101393.81;5013757;28;19947;-88
2022/03/07 02:24:15;;;;;;;3.95;3.17;;;;;;;6.95;72.80;101329.22;4996018;28;20034;-88
2022/03/07 02:26:41;;;;;;;5.43;3.70;;;;;;;6.95;72.86;101339.59;5012381;28;20480;-89
2022/03/07 02:29:10;;;;;;;4.72;3.45;;;;;;;7.35;72.69;101408.50;5020451;28;20049;-87
2022/03/07 02:31:36;;;;;;;4.65;3.42;;;;;;;7.16;72.89;101372.41;5008587;28;20140;-87
2022/03/07 02:34:03;;;;;;;4.63;3.33;;;;;;;7.37;72.73;101414.72;4992380;28;20085;-87
2022/03/07 02:36:31;;;;;;;4.05;3.33;;;;;;;7.09;72.85;101360.66;5025414;28;20053;-87
2022/03/07 02:38:56;;;;;;;4.88;3.67;;;;;;;7.16;73.38;101376.72;5001893;28;20040;-87
2022/03/07 02:41:22;;;;;;;4.25;3.30;;;;;;;7.16;73.12;101374.13;5027721;28;20025;-87
2022/03/07 02:43:48;;;;;;;3.95;3.15;;;;;;;7.35;72.81;101398.13;5028307;28;20045;-88
2022/03/07 02:46:13;;;;;;;4.65;3.60;;;;;;;6.98;72.92;101339.81;5013143;28;20499;-87
2022/03/07 02:48:39;;;;;;;4.47;3.40;;;;;;;7.03;73.03;101354.97;5010129;28;20041;-88
2022/03/07 02:51:06;;;;;;;3.42;3.13;;;;;;;6.90;72.62;101339.22;5012643;28;20069;-87
2022/03/07 02:53:32;;;;;;;5.07;3.22;;;;;;;7.28;73.09;101404.53;5015401;28;20036;-88
2022/03/07 02:55:58;;;;;;;3.70;3.20;;;;;;;6.98;72.68;101338.13;5031420;28;20029;-86
2022/03/07 02:58:24;;;;;;;4.65;3.17;;;;;;;7.31;73.00;101398.66;5007685;28;20518;-88
2022/03/07 03:00:50;;;;;;;4.53;3.30;;;;;;;7.16;72.84;101380.19;4997570;28;20037;-87
2022/03/07 03:03:16;;;;;;;3.33;3.03;;;;;;;7.31;72.58;101393.47;5031478;28;20503;-88
2022/03/07 03:05:41;;;;;;;3.92;3.10;;;;;;;7.36;72.53;101419.78;4998072;28;20040;-87
2022/03/07 03:08:09;;;;;;;4.55;3.30;;;;;;;7.27;72.71;101400.09;5030957;28;20552;-87
2022/03/07 03:10:35;;;;;;;4.75;3.28;;;;;;;7.21;72.89;101398.72;5032507;28;20034;-86
2022/03/07 03:13:05;;;;;;;3.65;3.10;;;;;;;7.02;73.02;101386.91;5031134;28;20487;-88
2022/03/07 03:15:30;;;;;;;4.80;3.40;;;;;;;7.29;73.10;101424.50;5014848;28;20071;-88
2022/03/07 03:17:56;;;;;;;3.95;3.33;;;;;;;7.27;73.14;101409.59;5014262;28;20054;-88
2022/03/07 03:20:22;;;;;;;4.55;3.40;;;;;;;7.04;73.08;101371.47;5032381;28;20417;-86
2022/03/07 03:22:47;;;;;;;4.45;3.28;;;;;;;7.22;72.82;101404.06;5032460;28;20026;-88
2022/03/07 03:25:17;;;;;;;4.78;3.58;;;;;;;7.16;73.10;101406.19;5013703;28;20029;-87
2022/03/07 03:27:43;;;;;;;3.85;3.22;;;;;;;7.18;72.53;101396.81;5031123;28;20033;-87
2022/03/07 03:30:11;;;;;;;4.03;3.50;;;;;;;7.20;73.00;101417.72;5032178;28;20030;-88
2022/03/07 03:32:37;;;;;;;4.22;3.20;;;;;;;7.32;72.55;101435.16;4998330;28;20557;-88
2022/03/07 03:35:04;;;;;;;3.88;3.28;;;;;;;7.30;72.65;101428.94;5014224;28;20087;-87
2022/03/07 03:37:30;;;;;;;4.70;3.17;;;;;;;6.96;72.98;101388.13;5014212;28;20040;-89
2022/03/07 03:39:56;;;;;;;4.20;3.30;;;;;;;6.91;73.52;101386.06;5014634;28;20044;-89
2022/03/07 03:42:22;;;;;;;5.18;3.47;;;;;;;7.23;73.25;101433.53;5014314;28;20017;-89
2022/03/07 03:44:49;;;;;;;4.70;3.42;;;;;;;7.13;73.76;101427.63;4998394;28;20038;-89
2022/03/07 03:47:15;;;;;;;4.82;3.58;;;;;;;7.17;72.99;101400.19;5015176;28;20021;-90
2022/03/07 03:49:41;;;;;;;3.80;3.25;;;;;;;6.99;73.45;101394.47;5014509;28;20052;-89
2022/03/07 03:52:07;;;;;;;3.80;3.28;;;;;;;6.61;73.09;101322.28;5026336;28;20045;-89
2022/03/07 03:54:33;;;;;;;3.83;3.20;;;;;;;7.00;73.09;101392.78;5011256;28;20140;-89
2022/03/07 03:56:58;;;;;;;3.70;3.10;;;;;;;7.08;73.16;101407.28;5002786;28;20129;-89
2022/03/07 03:59:26;;;;;;;4.07;3.20;;;;;;;7.20;73.02;101435.91;4991342;28;20041;-88
2022/03/07 04:01:56;;;;;;;4.43;3.15;;;;;;;7.13;73.23;101424.09;4991381;28;20034;-89
2022/03/07 04:04:21;;;;;;;4.03;3.20;;;;;;;6.78;73.16;101357.34;5026284;28;20041;-89
2022/03/07 04:06:47;;;;;;;4.47;3.42;;;;;;;6.99;73.21;101396.16;5010710;28;20033;-88
2022/03/07 04:09:17;;;;;;;3.88;2.90;;;;;;;6.94;73.18;101390.59;5010545;28;20102;-86
2022/03/07 04:11:43;;;;;;;4.50;3.28;;;;;;;7.18;73.15;101425.38;5027277;28;20026;-89
2022/03/07 04:14:08;;;;;;;4.32;3.10;;;;;;;7.23;73.28;101437.03;4993948;28;20037;-88
2022/03/07 04:16:37;;;;;;;4.45;3.22;;;;;;;6.78;73.33;101364.25;5023773;28;20116;-85
2022/03/07 04:19:03;;;;;;;5.07;3.58;;;;;;;6.93;73.66;101394.88;4991840;28;20034;-86
2022/03/07 04:21:29;;;;;;;4.00;3.10;;;;;;;7.13;73.27;101417.25;4992072;28;20377;-87
2022/03/07 04:23:55;;;;;;;3.75;3.10;;;;;;;7.19;73.45;101436.66;5021258;28;20034;-85
2022/03/07 04:26:21;;;;;;;5.05;3.30;;;;;;;6.85;73.46;101372.59;5009689;28;20029;-87
2022/03/07 04:28:47;;;;;;;3.70;3.20;;;;;;;6.64;73.57;101343.28;5011593;28;20037;-85
2022/03/07 04:31:12;;;;;;;4.18;3.13;;;;;;;7.12;73.08;101402.44;5009473;28;20565;-86
2022/03/07 04:33:38;;;;;;;3.55;3.00;;;;;;;7.02;73.48;101397.28;4992028;28;20038;-85
2022/03/07 04:36:04;;;;;;;4.82;3.30;;;;;;;7.12;73.23;101405.03;5007129;28;20026;-87
2022/03/07 04:38:30;;;;;;;3.92;2.97;;;;;;;7.22;73.33;101410.94;5007176;28;20617;-87
2022/03/07 04:40:55;;;;;;;4.47;3.25;;;;;;;7.04;73.10;101397.41;5005900;28;20380;-86
2022/03/07 04:43:22;;;;;;;3.38;2.75;;;;;;;6.62;73.41;101328.38;5026125;28;20411;-86
2022/03/07 04:45:48;;;;;;;4.45;3.50;;;;;;;6.79;73.08;101348.75;5010153;28;20030;-86
2022/03/07 04:48:14;;;;;;;4.63;3.33;;;;;;;6.89;73.61;101384.16;5022982;28;20611;-84
2022/03/07 04:50:42;;;;;;;3.92;3.33;;;;;;;6.80;73.06;101334.13;4974274;28;20538;-85
2022/03/07 04:53:08;;;;;;;3.90;2.88;;;;;;;6.80;73.36;101357.47;5008641;28;20038;-86
2022/03/07 04:55:34;;;;;;;3.80;3.20;;;;;;;6.73;73.22;101351.81;5011154;28;20079;-86
2022/03/07 04:57:59;;;;;;;4.00;2.92;;;;;;;6.95;73.20;101378.53;5007788;28;20115;-86
2022/03/07 05:00:25;;;;;;;3.70;3.00;;;;;;;7.11;73.37;101405.81;5013520;28;20072;-87
2022/03/07 05:02:51;;;;;;;3.70;3.17;;;;;;;7.06;73.27;101399.34;5023613;28;20178;-87
2022/03/07 05:05:18;;;;;;;3.90;3.10;;;;;;;7.14;73.42;101410.34;5027035;28;20383;-86
2022/03/07 05:07:44;;;;;;;4.60;3.05;;;;;;;7.14;73.20;101403.44;5008788;28;20065;-88
2022/03/07 05:10:10;;;;;;;4.13;3.25;;;;;;;7.12;73.14;101394.63;5030600;28;20119;-87
2022/03/07 05:12:36;;;;;;;3.92;3.20;;;;;;;7.12;73.55;101406.72;5032871;28;20072;-88
2022/03/07 05:15:03;;;;;;;4.40;3.50;;;;;;;6.90;73.47;101372.97;4999610;28;20080;-87
2022/03/07 05:17:29;;;;;;;3.47;2.92;;;;;;;6.87;73.59;101362.34;5033147;28;20088;-88
2022/03/07 05:19:57;;;;;;;3.95;3.22;;;;;;;6.96;73.20;101386.44;5017013;28;20049;-87
2022/03/07 05:22:25;;;;;;;4.13;3.03;;;;;;;7.08;73.38;101402.06;5036070;28;20064;-88
2022/03/07 05:24:52;;;;;;;4.90;3.17;;;;;;;7.10;73.36;101408.28;5013165;28;20108;-86
2022/03/07 05:27:18;;;;;;;3.35;2.97;;;;;;;6.92;73.12;101358.41;4997237;28;20034;-89
2022/03/07 05:29:44;;;;;;;3.40;3.08;;;;;;;7.16;73.43;101406.19;5028942;28;20419;-89
2022/03/07 05:32:12;;;;;;;3.90;3.28;;;;;;;7.01;72.87;101363.44;5016200;28;20033;-89
2022/03/07 05:34:38;;;;;;;3.42;3.08;;;;;;;6.95;73.32;101374.25;5000154;28;20021;-88
2022/03/07 05:37:05;;;;;;;4.75;3.13;;;;;;;7.21;73.04;101398.72;5001344;28;20052;-91
2022/03/07 05:39:49;;;;;;;4.70;3.40;;;;;;;6.92;73.20;101372.31;5017438;28;20033;-92
2022/03/07 05:42:17;;;;;;;3.35;2.90;;;;;;;7.04;73.54;101402.63;5001107;28;20748;-92
2022/03/07 05:44:43;;;;;;;3.58;2.95;;;;;;;7.01;73.49;101400.69;5001634;28;20175;-90
2022/03/07 05:47:10;;;;;;;3.80;3.08;;;;;;;7.01;73.46;101392.00;5020243;28;20033;-90
2022/03/07 05:49:37;;;;;;;4.28;3.47;;;;;;;6.79;73.42;101353.06;5032065;28;20399;-88
2022/03/07 05:52:03;;;;;;;3.88;2.85;;;;;;;6.76;73.62;101360.63;5049552;28;20069;-90
2022/03/07 05:54:31;;;;;;;;;;;;;;;7.20;73.10;101407.34;5020554;28;20053;-89
2022/03/07 05:56:57;;;;;;;4.07;3.08;;;;;;;6.90;73.37;101362.56;5019437;28;19924;-88
2022/03/07 05:59:25;;;;;;;4.47;3.28;;;;;;;6.96;73.61;101402.00;5021962;28;20052;-88
2022/03/07 06:01:50;;;;;;;4.20;3.30;;;;;;;6.96;73.48;101391.63;5019555;28;20034;-87
2022/03/07 06:04:16;;;;;;;3.78;3.25;;;;;;;6.81;73.31;101349.78;5024799;28;20034;-88
2022/03/07 06:06:42;;;;;;;4.65;3.30;;;;;;;6.88;73.72;101377.16;5025742;28;20041;-88
2022/03/07 06:09:14;;;;;;;3.35;2.83;;;;;;;7.03;72.99;101367.06;5009513;28;20543;-88
2022/03/07 06:11:40;;;;;;;4.40;3.13;;;;;;;7.10;73.42;101400.50;4994047;28;20034;-87
2022/03/07 06:14:05;;;;;;;3.70;3.20;;;;;;;6.71;73.62;101350.78;5026416;28;20033;-88
2022/03/07 06:16:31;;;;;;;4.07;3.40;;;;;;;6.84;73.60;101373.41;5008816;28;20132;-86
2022/03/07 06:18:57;;;;;;;4.30;3.25;;;;;;;6.84;73.32;101357.84;5028718;28;20800;-88
2022/03/07 06:21:23;;;;;;;3.83;3.28;;;;;;;6.46;73.53;101305.53;5025578;28;20041;-89
2022/03/07 06:23:50;;;;;;;5.68;3.35;;;;;;;6.93;73.43;101392.28;5016664;28;20601;-89
2022/03/07 06:26:15;;;;;;;4.75;3.53;;;;;;;6.83;73.69;101376.78;5015470;28;20034;-86
2022/03/07 06:28:51;;;;;;;4.40;3.45;;;;;;;6.87;73.43;101375.34;5016996;28;20053;-89
2022/03/07 06:31:18;;;;;;;4.30;3.30;;;;;;;6.99;73.31;101397.06;5029452;28;20125;-88
2022/03/07 06:33:44;;;;;;;4.72;3.38;;;;;;;6.98;73.69;101396.94;5013224;28;20088;-86
2022/03/07 06:36:09;;;;;;;4.75;3.40;;;;;;;6.84;73.62;101370.81;5011699;28;20042;-87
2022/03/07 06:38:36;;;;;;;4.80;3.63;;;;;;;7.00;73.69;101406.66;5013544;28;20033;-87
2022/03/07 06:41:05;;;;;;;4.90;3.35;;;;;;;6.61;73.84;101355.13;5005455;28;20418;-91
2022/03/07 06:43:32;;;;;;;4.25;3.35;;;;;;;6.84;73.54;101391.56;5008341;28;20033;-91
2022/03/07 06:45:57;;;;;;;3.80;3.08;;;;;;;6.67;73.72;101353.91;5010519;28;20048;-88
2022/03/07 06:48:26;;;;;;;4.53;3.40;;;;;;;7.04;73.36;101400.91;5014928;28;20495;-91
2022/03/07 06:50:52;;;;;;;4.15;3.25;;;;;;;6.93;73.84;101412.16;5011974;28;20034;-89
2022/03/07 06:53:27;;;;;;;4.57;3.45;;;;;;;7.03;73.36;101399.13;5031406;28;20037;-89
2022/03/07 06:55:56;;;;;;;4.20;3.45;;;;;;;6.83;73.97;101394.03;5014643;28;20040;-90
2022/03/07 06:58:21;;;;;;;5.30;3.85;;;;;;;6.86;73.81;101394.31;5014702;28;20032;-90
2022/03/07 07:00:51;;;;;;;4.07;3.15;;;;;;;6.84;73.66;101390.69;4998253;28;20029;-90
2022/03/07 07:03:17;;;;;;;4.10;3.38;;;;;;;7.00;73.52;101406.66;5032442;28;20025;-88
2022/03/07 07:05:46;;;;;;;5.28;3.60;;;;;;;6.97;73.56;101398.63;5032310;28;20044;-89
2022/03/07 07:08:11;;;;;;;5.13;3.85;;;;;;;6.64;73.75;101345.88;5014719;28;20036;-90
2022/03/07 07:10:38;;;;;;;4.88;3.50;;;;;;;6.88;73.83;101388.44;5022592;28;20044;-87
2022/03/07 07:13:06;;;;;;;;;;;;;;;6.99;73.80;101402.25;5012564;28;20152;-90
2022/03/07 07:15:34;;;;;;;4.63;3.42;;;;;;;6.93;73.62;101404.38;5031569;28;20450;-88
2022/03/07 07:17:59;;;;;;;5.25;3.83;;;;;;;6.73;74.24;101398.53;5010624;28;20037;-87
2022/03/07 07:20:25;;;;;;;5.13;4.00;;;;;;;6.73;73.95;101369.03;5035697;28;20494;-88
2022/03/07 07:22:50;;;;;;;4.72;3.72;;;;;;;6.88;73.81;101398.81;5009818;28;20446;-87
2022/03/07 07:25:16;;;;;;;4.93;3.63;;;;;;;6.69;74.05;101373.09;5033066;28;20711;-89
2022/03/07 07:27:47;;;;;;;4.80;3.58;;;;;;;6.74;74.05;101381.25;5042216;28;20092;-89
2022/03/07 07:30:12;;;;;;;4.68;3.58;;;;;;;6.75;73.63;101362.28;5017933;28;20029;-89
2022/03/07 07:32:39;;;;;;;4.85;3.47;;;;;;;6.75;74.03;101367.47;5051046;28;20414;-88
2022/03/07 07:35:09;;;;;;;5.25;3.65;;;;;;;6.75;74.05;101383.03;5026789;28;20580;-89
2022/03/07 07:37:35;;;;;;;4.63;3.72;;;;;;;6.71;74.39;101379.31;5014078;28;20333;-89
2022/03/07 07:40:03;;;;;;;4.95;3.70;;;;;;;6.63;73.79;101354.44;5038892;28;20104;-89
2022/03/07 07:42:30;;;;;;;4.75;3.55;;;;;;;6.90;73.71;101391.13;5028943;28;20039;-89
2022/03/07 07:44:56;;;;;;;5.40;3.58;;;;;;;6.49;74.15;101335.19;5014537;28;20025;-89
2022/03/07 07:47:21;;;;;;;4.93;3.63;;;;;;;6.72;73.84;101355.16;5030739;28;20529;-88
2022/03/07 07:49:49;;;;;;;4.82;3.90;;;;;;;6.92;73.52;101389.56;5019491;28;20545;-90
2022/03/07 07:52:15;;;;;;;4.40;3.60;;;;;;;6.68;74.33;101365.19;4985808;28;20048;-86
2022/03/07 07:54:41;;;;;;;4.75;3.70;;;;;;;6.77;74.63;101390.97;5051853;28;20036;-87
2022/03/07 07:57:07;;;;;;;5.03;3.95;;;;;;;6.90;73.90;101389.47;5048850;28;20394;-87
2022/03/07 07:59:33;;;;;;;5.38;3.53;;;;;;;6.91;73.60;101379.97;5024972;28;20044;-88
2022/03/07 08:01:58;;;;;;;5.38;3.65;;;;;;;6.86;74.29;101391.72;5031654;28;20021;-88
2022/03/07 08:04:24;;;;;;;5.35;4.07;;;;;;;6.65;73.60;101329.53;5027711;28;20060;-87
2022/03/07 08:06:50;;;;;;;4.60;3.45;;;;;;;6.23;73.82;101262.19;5036921;28;20040;-87
2022/03/07 08:09:15;;;;;;;4.60;3.58;;;;;;;6.68;74.61;101372.97;5016135;28;20033;-87
2022/03/07 08:11:41;;;;;;;6.63;3.95;;;;;;;6.60;75.07;101366.28;5016670;28;20029;-86
2022/03/07 08:14:07;;;;;;;4.85;3.83;;;;;;;6.59;75.16;101365.38;5013755;28;20088;-87
2022/03/07 08:16:32;;;;;;;5.18;4.10;;;;;;;6.72;74.69;101375.03;5031890;28;20037;-87
2022/03/07 08:18:59;;;;;;;5.25;4.15;;;;;;;6.59;74.99;101359.28;5033628;28;20033;-87
2022/03/07 08:21:25;;;;;;;4.72;3.78;;;;;;;6.52;74.86;101348.41;5031246;28;20038;-87
2022/03/07 08:23:54;;;;;;;5.55;4.00;;;;;;;6.76;74.73;101371.00;5031615;28;20045;-88
2022/03/07 08:26:22;;;;;;;5.65;3.70;;;;;;;6.41;74.93;101324.97;5014161;28;20025;-88
2022/03/07 08:28:48;;;;;;;6.03;4.18;;;;;;;6.56;75.09;101349.56;5037683;28;20082;-88
2022/03/07 08:31:13;;;;;;;5.97;4.30;;;;;;;6.78;74.55;101367.72;5051536;28;20468;-85
2022/03/07 08:33:40;;;;;;;6.55;4.18;;;;;;;6.66;75.22;101370.25;5032162;28;20025;-87
2022/03/07 08:36:06;;;;;;;6.10;4.18;;;;;;;6.55;74.70;101326.09;5031164;28;20406;-88
2022/03/07 08:38:32;;;;;;;6.43;4.30;;;;;;;6.40;74.87;101333.56;5015328;28;20491;-87
2022/03/07 08:40:58;;;;;;;6.03;4.43;;;;;;;6.58;75.24;101366.13;5015313;28;20124;-88
2022/03/07 08:43:25;;;;;;;7.18;4.53;;;;;;;6.55;75.16;101352.94;4994169;28;20152;-89
2022/03/07 08:45:51;;;;;;;5.97;4.28;;;;;;;6.75;74.63;101370.06;5011218;28;20017;-87
2022/03/07 08:48:16;;;;;;;6.35;4.50;;;;;;;6.75;74.53;101374.34;5031026;28;20106;-87
2022/03/07 08:50:43;;;;;;;5.22;4.07;;;;;;;6.84;74.46;101364.72;5016611;28;20040;-86
2022/03/07 08:53:08;;;;;;;5.38;4.13;;;;;;;6.80;74.54;101350.59;5034125;28;20096;-86
2022/03/07 08:55:34;;;;;;;6.23;4.50;;;;;;;6.60;74.89;101343.81;5013228;28;20084;-85
2022/03/07 08:58:00;;;;;;;7.20;4.57;;;;;;;6.66;74.65;101346.00;5035004;28;20673;-86
2022/03/07 09:00:26;;;;;;;6.57;4.78;;;;;;;6.65;74.84;101354.59;5036584;28;20041;-86
2022/03/07 09:02:52;;;;;;;6.93;4.63;;;;;;;6.66;74.67;101344.28;5034450;28;20047;-86
2022/03/07 09:05:17;;;;;;;5.93;4.60;;;;;;;6.71;74.84;101357.66;5013617;28;20041;-85
2022/03/07 09:07:43;;;;;;;6.78;4.32;;;;;;;6.66;75.29;101358.97;5019298;28;20495;-87
2022/03/07 09:10:09;;;;;;;5.88;4.28;;;;;;;6.63;75.01;101344.06;5028018;28;20029;-86
2022/03/07 09:12:35;;;;;;;6.60;4.50;;;;;;;6.70;74.53;101348.94;5004450;28;20028;-87
2022/03/07 09:15:03;;;;;;;7.70;4.45;;;;;;;6.72;74.79;101354.25;5034798;28;20479;-87
2022/03/07 09:17:29;;;;;;;6.15;4.53;;;;;;;6.26;75.06;101273.69;5006147;28;20482;-86
2022/03/07 09:19:58;;;;;;;6.32;4.50;;;;;;;6.45;74.61;101288.13;5052114;28;20028;-84
2022/03/07 09:22:25;;;;;;;6.53;4.68;;;;;;;6.78;74.75;101346.06;5031947;28;20116;-85
2022/03/07 09:24:51;;;;;;;6.63;4.55;;;;;;;6.60;74.64;101307.47;5021563;28;20507;-85
2022/03/07 09:27:16;;;;;;;7.40;4.70;;;;;;;6.68;74.39;101332.34;5032246;28;20029;-85
2022/03/07 09:29:42;;;;;;;5.90;4.28;;;;;;;6.52;74.36;101291.34;5032268;28;20101;-85
2022/03/07 09:32:08;;;;;;;6.38;4.50;;;;;;;6.79;74.51;101335.78;5028340;28;20030;-82
2022/03/07 09:34:34;;;;;;;5.60;4.40;;;;;;;6.60;74.54;101319.56;5033439;28;20034;-87
2022/03/07 09:37:00;;;;;;;8.82;5.05;;;;;;;6.80;74.30;101339.31;5016929;28;20073;-87
2022/03/07 09:39:26;;;;;;;5.53;4.18;;;;;;;6.83;74.25;101342.13;5016456;28;20795;-87
2022/03/07 09:41:53;;;;;;;6.80;4.78;;;;;;;6.76;74.49;101351.13;5016634;28;20028;-87
2022/03/07 09:44:20;;;;;;;5.70;4.30;;;;;;;6.80;74.20;101323.72;5016857;28;20029;-87
2022/03/07 09:46:49;;;;;;;6.15;4.65;;;;;;;6.83;74.41;101355.09;5018334;28;20521;-87
2022/03/07 09:49:18;;;;;;;14.65;5.88;;;;;;;6.90;74.19;101341.81;5042461;28;20025;-86
2022/03/07 09:51:43;;;;;;;10.82;5.70;;;;;;;6.66;74.95;101338.22;5022912;28;20392;-85
2022/03/07 09:54:09;;;;;;;12.98;5.40;;;;;;;6.77;74.80;101352.03;5017599;28;20052;-85
2022/03/07 09:56:35;;;;;;;7.00;4.40;;;;;;;6.53;75.05;101324.25;5034597;28;20041;-86
2022/03/07 09:59:00;;;;;;;11.82;4.85;;;;;;;6.60;74.06;101301.41;5017709;28;20052;-86
2022/03/07 10:01:27;;;;;;;8.57;5.07;;;;;;;6.53;74.91;101315.59;5017477;28;20038;-88
2022/03/07 10:04:04;;;;;;;8.13;4.80;;;;;;;6.86;74.65;101351.06;5031704;28;20041;-88
2022/03/07 10:06:31;;;;;;;7.13;4.60;;;;;;;6.75;74.75;101351.91;4996651;28;20053;-87
2022/03/07 10:08:58;;;;;;;7.82;4.85;;;;;;;6.83;74.63;101353.41;5014080;28;20022;-88
2022/03/07 10:11:26;;;;;;;8.63;4.80;;;;;;;6.68;74.72;101321.06;4980630;28;20025;-87
2022/03/07 10:13:58;;;;;;;6.80;4.82;;;;;;;6.69;74.89;101349.75;5014069;28;20087;-89
2022/03/07 10:16:37;;;;;;;7.22;4.45;;;;;;;6.60;75.43;101340.31;4980360;28;20546;-88
2022/03/07 10:19:08;;;;;;;8.07;5.20;;;;;;;6.16;74.52;101232.28;5029409;28;20029;-88
2022/03/07 10:21:33;;;;;;;8.13;5.07;;;;;;;6.66;75.08;101343.41;5029248;28;20026;-86
2022/03/07 10:24:00;;;;;;;6.65;4.88;;;;;;;6.48;75.43;101307.44;4996021;28;20022;-87
2022/03/07 10:26:33;;;;;;;7.95;4.65;;;;;;;6.77;75.07;101347.72;4996329;28;20091;-89
2022/03/07 10:28:59;;;;;;;7.43;4.70;;;;;;;6.45;75.01;101303.69;4995472;28;20018;-87
2022/03/07 10:31:26;;;;;;;8.63;4.70;;;;;;;6.62;75.39;101349.13;5012084;28;20026;-88
2022/03/07 10:34:11;;;;;;;8.80;5.05;;;;;;;6.68;75.12;101353.09;4979795;28;20034;-88
2022/03/07 10:36:41;;;;;;;7.55;4.95;;;;;;;6.59;74.80;101315.16;4995836;28;20060;-87
2022/03/07 10:39:10;;;;;;;7.47;4.72;;;;;;;6.71;75.23;101343.00;4979838;28;20022;-88
2022/03/07 10:41:38;;;;;;;6.40;4.75;;;;;;;6.55;74.86;101305.34;5013088;28;20064;-88
2022/03/07 10:44:07;;;;;;;8.13;5.00;;;;;;;6.43;74.48;101271.53;5020290;28;20025;-89
2022/03/07 10:46:34;;;;;;;6.10;4.35;;;;;;;6.70;74.94;101311.72;4998850;28;20557;-89
2022/03/07 10:49:00;;;;;;;7.60;4.95;;;;;;;6.74;74.46;101324.16;5031965;28;20026;-89
2022/03/07 10:51:30;;;;;;;7.60;5.07;;;;;;;6.87;74.06;101319.13;5015443;28;20476;-90
2022/03/07 10:53:55;;;;;;;8.25;5.20;;;;;;;6.83;74.57;101335.22;5014241;28;20049;-87
2022/03/07 10:56:23;;;;;;;7.25;4.85;;;;;;;6.44;74.48;101269.06;5031276;28;20029;-87
2022/03/07 10:58:54;;;;;;;8.13;4.68;;;;;;;6.55;74.51;101288.06;5031294;28;20451;-88
2022/03/07 11:01:31;;;;;;;8.18;5.30;;;;;;;6.57;74.85;101311.56;5013924;28;20025;-87
2022/03/07 11:03:57;;;;;;;6.95;4.75;;;;;;;6.76;74.66;101321.69;5031087;28;20034;-88
2022/03/07 11:06:26;;;;;;;6.68;4.78;;;;;;;6.83;74.29;101326.56;5014996;28;20030;-90
2022/03/07 11:08:53;;;;;;;7.47;4.75;;;;;;;6.71;74.84;101319.63;5015141;28;20475;-87
2022/03/07 11:11:22;;;;;;;8.65;5.10;;;;;;;6.66;74.69;101315.75;5014785;28;20026;-88
2022/03/07 11:13:53;;;;;;;8.10;5.22;;;;;;;6.83;74.65;101330.03;5015584;28;20033;-88
2022/03/07 11:16:21;;;;;;;7.80;5.32;;;;;;;6.83;74.62;101329.16;5014445;28;20028;-86
2022/03/07 11:18:53;;;;;;;8.60;5.40;;;;;;;6.66;75.23;101323.53;4998130;28;20419;-88
2022/03/07 11:21:20;;;;;;;7.20;5.15;;;;;;;6.73;74.37;101304.16;5014191;28;20040;-87
2022/03/07 11:23:47;;;;;;;9.25;5.38;;;;;;;6.69;74.58;101300.44;5013863;28;20109;-86
2022/03/07 11:26:13;;;;;;;8.93;5.68;;;;;;;6.71;73.96;101282.41;5031734;28;20021;-88
2022/03/07 11:28:40;;;;;;;7.78;5.15;;;;;;;6.73;73.47;101267.81;4997756;28;20037;-88
2022/03/07 11:31:18;;;;;;;7.20;5.28;;;;;;;7.00;73.94;101325.25;5013607;28;20427;-88
2022/03/07 11:33:51;;;;;;;8.35;5.38;;;;;;;6.92;74.17;101323.00;4997237;28;20112;-88